sensor_id;sensor_type;location;lat;lon;timestamp;pressure;altitude;pressure_sealevel;temperature;humidity
56038;BME280;41907;47.848;9.000;2023-01-13T00:01:15;95730.53;;;6.20;96.85
56038;BME280;41907;47.848;9.000;2023-01-13T00:03:41;95725.00;;;6.17;97.03
56038;BME280;41907;47.848;9.000;2023-01-13T00:06:11;95715.19;;;6.17;96.81
56038;BME280;41907;47.848;9.000;2023-01-13T00:08:37;95714.41;;;6.17;96.81
56038;BME280;41907;47.848;9.000;2023-01-13T00:11:02;95716.00;;;6.18;96.91
56038;BME280;41907;47.848;9.000;2023-01-13T00:13:28;95720.94;;;6.24;96.75
56038;BME280;41907;47.848;9.000;2023-01-13T00:16:09;95706.28;;;6.08;96.75
56038;BME280;41907;47.848;9.000;2023-01-13T00:18:35;95699.47;;;6.02;97.17
56038;BME280;41907;47.848;9.000;2023-01-13T00:21:06;95696.31;;;6.00;97.34
56038;BME280;41907;47.848;9.000;2023-01-13T00:23:34;95683.91;;;5.95;96.78
56038;BME280;41907;47.848;9.000;2023-01-13T00:26:05;95683.63;;;5.97;96.80
56038;BME280;41907;47.848;9.000;2023-01-13T00:28:31;95677.53;;;5.96;95.37
56038;BME280;41907;47.848;9.000;2023-01-13T00:31:10;95678.03;;;6.04;95.63
56038;BME280;41907;47.848;9.000;2023-01-13T00:33:36;95676.13;;;6.04;95.53
56038;BME280;41907;47.848;9.000;2023-01-13T00:36:03;95676.53;;;5.92;95.61
56038;BME280;41907;47.848;9.000;2023-01-13T00:38:30;95674.34;;;6.00;95.71
56038;BME280;41907;47.848;9.000;2023-01-13T00:43:29;95660.84;;;5.96;95.64
56038;BME280;41907;47.848;9.000;2023-01-13T00:45:55;95667.81;;;5.92;95.15
56038;BME280;41907;47.848;9.000;2023-01-13T00:48:22;95664.56;;;5.95;95.44
56038;BME280;41907;47.848;9.000;2023-01-13T00:51:01;95665.38;;;5.95;94.67
56038;BME280;41907;47.848;9.000;2023-01-13T00:53:29;95663.47;;;6.01;94.75
56038;BME280;41907;47.848;9.000;2023-01-13T00:56:05;95659.59;;;5.93;94.75
56038;BME280;41907;47.848;9.000;2023-01-13T00:58:32;95659.59;;;5.93;94.86
56038;BME280;41907;47.848;9.000;2023-01-13T01:01:02;95656.41;;;5.91;94.60
56038;BME280;41907;47.848;9.000;2023-01-13T01:03:29;95653.72;;;5.96;94.21
56038;BME280;41907;47.848;9.000;2023-01-13T01:05:55;95647.31;;;6.03;93.67
56038;BME280;41907;47.848;9.000;2023-01-13T01:08:21;95649.09;;;6.07;93.61
56038;BME280;41907;47.848;9.000;2023-01-13T01:10:46;95652.53;;;6.08;92.96
56038;BME280;41907;47.848;9.000;2023-01-13T01:13:11;95654.56;;;6.16;93.41
56038;BME280;41907;47.848;9.000;2023-01-13T01:15:44;95656.59;;;6.24;92.80
56038;BME280;41907;47.848;9.000;2023-01-13T01:18:11;95667.44;;;6.27;92.96
56038;BME280;41907;47.848;9.000;2023-01-13T01:20:37;95670.91;;;6.23;93.00
56038;BME280;41907;47.848;9.000;2023-01-13T01:23:02;95667.25;;;6.19;92.54
56038;BME280;41907;47.848;9.000;2023-01-13T01:25:28;95661.19;;;6.18;92.38
56038;BME280;41907;47.848;9.000;2023-01-13T01:27:53;95667.19;;;6.24;92.54
56038;BME280;41907;47.848;9.000;2023-01-13T01:30:19;95662.00;;;6.14;92.83
56038;BME280;41907;47.848;9.000;2023-01-13T01:32:44;95654.31;;;6.17;92.88
56038;BME280;41907;47.848;9.000;2023-01-13T01:35:09;95651.09;;;6.20;93.14
56038;BME280;41907;47.848;9.000;2023-01-13T01:37:35;95651.09;;;6.20;92.80
56038;BME280;41907;47.848;9.000;2023-01-13T01:40:00;95646.31;;;6.22;93.00
56038;BME280;41907;47.848;9.000;2023-01-13T01:42:25;95638.13;;;6.19;93.15
56038;BME280;41907;47.848;9.000;2023-01-13T01:47:46;95641.31;;;6.21;93.69
56038;BME280;41907;47.848;9.000;2023-01-13T01:50:12;95650.97;;;6.07;93.85
56038;BME280;41907;47.848;9.000;2023-01-13T01:52:43;95649.88;;;6.13;93.62
56038;BME280;41907;47.848;9.000;2023-01-13T01:57:44;95644.75;;;6.21;93.74
56038;BME280;41907;47.848;9.000;2023-01-13T02:00:12;95650.34;;;6.15;93.71
56038;BME280;41907;47.848;9.000;2023-01-13T02:02:38;95641.41;;;6.11;93.72
56038;BME280;41907;47.848;9.000;2023-01-13T02:05:05;95641.16;;;6.07;94.03
56038;BME280;41907;47.848;9.000;2023-01-13T02:07:32;95636.66;;;6.08;93.81
56038;BME280;41907;47.848;9.000;2023-01-13T02:10:03;95631.03;;;6.14;93.76
56038;BME280;41907;47.848;9.000;2023-01-13T02:12:29;95622.25;;;6.19;93.50
56038;BME280;41907;47.848;9.000;2023-01-13T02:15:20;95625.41;;;6.21;92.92
56038;BME280;41907;47.848;9.000;2023-01-13T02:27:00;95612.06;;;6.31;92.47
56038;BME280;41907;47.848;9.000;2023-01-13T02:35:32;95615.38;;;6.42;92.58
56038;BME280;41907;47.848;9.000;2023-01-13T02:38:01;95614.34;;;6.38;93.47
56038;BME280;41907;47.848;9.000;2023-01-13T02:43:07;95618.78;;;6.42;93.02
56038;BME280;41907;47.848;9.000;2023-01-13T02:46:12;95619.56;;;6.43;93.16
56038;BME280;41907;47.848;9.000;2023-01-13T02:48:43;95615.38;;;6.42;92.82
56038;BME280;41907;47.848;9.000;2023-01-13T02:51:13;95610.84;;;6.42;93.64
56038;BME280;41907;47.848;9.000;2023-01-13T02:53:45;95606.00;;;6.49;93.19
56038;BME280;41907;47.848;9.000;2023-01-13T02:56:14;95616.59;;;6.49;93.42
56038;BME280;41907;47.848;9.000;2023-01-13T02:58:42;95599.31;;;6.52;93.59
56038;BME280;41907;47.848;9.000;2023-01-13T03:01:09;95614.00;;;6.44;93.58
56038;BME280;41907;47.848;9.000;2023-01-13T03:03:35;95611.94;;;6.41;94.13
56038;BME280;41907;47.848;9.000;2023-01-13T03:08:59;95605.72;;;6.51;94.57
56038;BME280;41907;47.848;9.000;2023-01-13T03:11:33;95593.25;;;6.51;94.44
56038;BME280;41907;47.848;9.000;2023-01-13T03:14:15;95604.63;;;6.52;94.98
56038;BME280;41907;47.848;9.000;2023-01-13T03:20:07;95606.19;;;6.53;96.26
56038;BME280;41907;47.848;9.000;2023-01-13T03:26:16;95596.06;;;6.60;96.34
56038;BME280;41907;47.848;9.000;2023-01-13T03:28:53;95587.31;;;6.59;96.94
56038;BME280;41907;47.848;9.000;2023-01-13T03:31:25;95586.81;;;6.57;97.45
56038;BME280;41907;47.848;9.000;2023-01-13T03:34:01;95572.69;;;6.62;97.88
56038;BME280;41907;47.848;9.000;2023-01-13T03:36:29;95576.28;;;6.71;97.98
56038;BME280;41907;47.848;9.000;2023-01-13T03:39:00;95576.22;;;6.76;98.08
56038;BME280;41907;47.848;9.000;2023-01-13T03:41:37;95576.22;;;6.76;98.29
56038;BME280;41907;47.848;9.000;2023-01-13T03:44:20;95561.81;;;6.82;98.98
56038;BME280;41907;47.848;9.000;2023-01-13T03:52:27;95557.88;;;6.80;100.00
56038;BME280;41907;47.848;9.000;2023-01-13T03:55:16;95565.06;;;6.79;100.00
56038;BME280;41907;47.848;9.000;2023-01-13T03:57:52;95560.47;;;6.85;100.00
56038;BME280;41907;47.848;9.000;2023-01-13T04:00:24;95565.75;;;6.85;100.00
56038;BME280;41907;47.848;9.000;2023-01-13T04:02:57;95569.44;;;6.89;100.00
56038;BME280;41907;47.848;9.000;2023-01-13T04:05:30;95572.66;;;6.86;100.00
56038;BME280;41907;47.848;9.000;2023-01-13T04:08:20;95562.03;;;6.86;100.00
56038;BME280;41907;47.848;9.000;2023-01-13T04:11:36;95562.22;;;6.89;100.00
56038;BME280;41907;47.848;9.000;2023-01-13T04:13:53;95561.25;;;6.85;100.00
56038;BME280;41907;47.848;9.000;2023-01-13T04:16:19;95565.19;;;6.88;100.00
56038;BME280;41907;47.848;9.000;2023-01-13T04:18:44;95555.66;;;6.87;100.00
56038;BME280;41907;47.848;9.000;2023-01-13T04:21:10;95549.91;;;6.80;100.00
56038;BME280;41907;47.848;9.000;2023-01-13T04:23:35;95554.88;;;6.67;100.00
56038;BME280;41907;47.848;9.000;2023-01-13T04:26:01;95555.38;;;6.69;100.00
56038;BME280;41907;47.848;9.000;2023-01-13T04:28:26;95563.97;;;6.61;100.00
56038;BME280;41907;47.848;9.000;2023-01-13T04:30:52;95568.69;;;6.64;100.00
56038;BME280;41907;47.848;9.000;2023-01-13T04:33:18;95571.56;;;6.68;100.00
56038;BME280;41907;47.848;9.000;2023-01-13T04:35:45;95567.63;;;6.65;100.00
56038;BME280;41907;47.848;9.000;2023-01-13T04:38:13;95562.31;;;6.65;100.00
56038;BME280;41907;47.848;9.000;2023-01-13T04:40:40;95564.97;;;6.65;100.00
56038;BME280;41907;47.848;9.000;2023-01-13T04:43:05;95567.50;;;6.76;100.00
56038;BME280;41907;47.848;9.000;2023-01-13T04:45:31;95558.03;;;6.69;100.00
56038;BME280;41907;47.848;9.000;2023-01-13T04:47:56;95555.97;;;6.66;100.00
56038;BME280;41907;47.848;9.000;2023-01-13T04:50:22;95546.44;;;6.65;100.00
56038;BME280;41907;47.848;9.000;2023-01-13T04:52:49;95549.78;;;6.71;100.00
56038;BME280;41907;47.848;9.000;2023-01-13T04:55:16;95531.09;;;6.62;100.00
56038;BME280;41907;47.848;9.000;2023-01-13T04:57:41;95539.81;;;6.63;100.00
56038;BME280;41907;47.848;9.000;2023-01-13T05:00:08;95537.91;;;6.68;100.00
56038;BME280;41907;47.848;9.000;2023-01-13T05:02:34;95548.44;;;6.73;100.00
56038;BME280;41907;47.848;9.000;2023-01-13T05:04:59;95542.34;;;6.73;100.00
56038;BME280;41907;47.848;9.000;2023-01-13T05:07:25;95551.34;;;6.72;100.00
56038;BME280;41907;47.848;9.000;2023-01-13T05:09:51;95545.78;;;6.73;100.00
56038;BME280;41907;47.848;9.000;2023-01-13T05:12:17;95533.53;;;6.78;100.00
56038;BME280;41907;47.848;9.000;2023-01-13T05:15:01;95533.59;;;6.72;100.00
56038;BME280;41907;47.848;9.000;2023-01-13T05:17:45;95529.88;;;6.73;100.00
56038;BME280;41907;47.848;9.000;2023-01-13T05:20:11;95534.31;;;6.78;100.00
56038;BME280;41907;47.848;9.000;2023-01-13T05:22:36;95538.47;;;6.84;100.00
56038;BME280;41907;47.848;9.000;2023-01-13T05:25:21;95535.03;;;6.84;100.00
56038;BME280;41907;47.848;9.000;2023-01-13T05:27:58;95534.47;;;6.87;100.00
56038;BME280;41907;47.848;9.000;2023-01-13T05:30:29;95538.97;;;6.86;100.00
56038;BME280;41907;47.848;9.000;2023-01-13T05:32:55;95542.41;;;6.87;100.00
56038;BME280;41907;47.848;9.000;2023-01-13T05:35:21;95540.03;;;6.85;100.00
56038;BME280;41907;47.848;9.000;2023-01-13T05:37:46;95534.97;;;6.89;100.00
56038;BME280;41907;47.848;9.000;2023-01-13T05:40:14;95539.16;;;6.90;100.00
56038;BME280;41907;47.848;9.000;2023-01-13T05:45:48;95541.03;;;6.89;100.00
56038;BME280;41907;47.848;9.000;2023-01-13T05:48:16;95548.13;;;6.94;100.00
56038;BME280;41907;47.848;9.000;2023-01-13T05:50:42;95547.72;;;6.87;100.00
56038;BME280;41907;47.848;9.000;2023-01-13T05:53:07;95549.28;;;6.88;100.00
56038;BME280;41907;47.848;9.000;2023-01-13T05:55:33;95536.09;;;6.83;100.00
56038;BME280;41907;47.848;9.000;2023-01-13T05:57:58;95535.41;;;6.77;100.00
56038;BME280;41907;47.848;9.000;2023-01-13T06:00:24;95539.69;;;6.73;100.00
56038;BME280;41907;47.848;9.000;2023-01-13T06:02:50;95532.28;;;6.70;100.00
56038;BME280;41907;47.848;9.000;2023-01-13T06:05:16;95534.38;;;6.73;100.00
56038;BME280;41907;47.848;9.000;2023-01-13T06:07:41;95533.69;;;6.67;100.00
56038;BME280;41907;47.848;9.000;2023-01-13T06:10:07;95542.69;;;6.66;100.00
56038;BME280;41907;47.848;9.000;2023-01-13T06:12:32;95546.44;;;6.65;100.00
56038;BME280;41907;47.848;9.000;2023-01-13T06:14:58;95542.69;;;6.66;100.00
56038;BME280;41907;47.848;9.000;2023-01-13T06:17:23;95541.81;;;6.71;100.00
56038;BME280;41907;47.848;9.000;2023-01-13T06:19:49;95557.38;;;6.78;100.00
56038;BME280;41907;47.848;9.000;2023-01-13T06:22:25;95557.53;;;6.67;100.00
56038;BME280;41907;47.848;9.000;2023-01-13T06:24:52;95555.09;;;6.71;100.00
56038;BME280;41907;47.848;9.000;2023-01-13T06:27:19;95551.94;;;6.69;100.00
56038;BME280;41907;47.848;9.000;2023-01-13T06:29:45;95555.59;;;6.73;100.00
56038;BME280;41907;47.848;9.000;2023-01-13T06:32:23;95564.56;;;6.77;100.00
56038;BME280;41907;47.848;9.000;2023-01-13T06:34:58;95567.50;;;6.76;100.00
56038;BME280;41907;47.848;9.000;2023-01-13T06:37:26;95562.41;;;6.79;100.00
56038;BME280;41907;47.848;9.000;2023-01-13T06:39:55;95546.00;;;6.77;100.00
56038;BME280;41907;47.848;9.000;2023-01-13T06:42:24;95554.75;;;6.78;100.00
56038;BME280;41907;47.848;9.000;2023-01-13T06:45:08;95551.31;;;6.77;100.00
56038;BME280;41907;47.848;9.000;2023-01-13T06:47:34;95540.97;;;6.76;100.00
56038;BME280;41907;47.848;9.000;2023-01-13T06:50:00;95556.16;;;6.70;100.00
56038;BME280;41907;47.848;9.000;2023-01-13T06:52:25;95549.50;;;6.72;100.00
56038;BME280;41907;47.848;9.000;2023-01-13T06:54:57;95550.84;;;6.70;100.00
56038;BME280;41907;47.848;9.000;2023-01-13T06:57:23;95552.44;;;6.71;100.00
56038;BME280;41907;47.848;9.000;2023-01-13T06:59:48;95542.91;;;6.70;100.00
56038;BME280;41907;47.848;9.000;2023-01-13T07:02:13;95547.22;;;6.66;100.00
56038;BME280;41907;47.848;9.000;2023-01-13T07:04:39;95557.25;;;6.69;100.00
56038;BME280;41907;47.848;9.000;2023-01-13T07:07:04;95557.25;;;6.69;100.00
56038;BME280;41907;47.848;9.000;2023-01-13T07:09:30;95553.50;;;6.70;100.00
56038;BME280;41907;47.848;9.000;2023-01-13T07:11:55;95567.06;;;6.68;100.00
56038;BME280;41907;47.848;9.000;2023-01-13T07:14:20;95575.28;;;6.67;100.00
56038;BME280;41907;47.848;9.000;2023-01-13T07:17:04;95570.69;;;6.72;100.00
56038;BME280;41907;47.848;9.000;2023-01-13T07:19:29;95579.66;;;6.77;100.00
56038;BME280;41907;47.848;9.000;2023-01-13T07:21:55;95571.44;;;6.78;100.00
56038;BME280;41907;47.848;9.000;2023-01-13T07:24:20;95578.50;;;6.83;100.00
56038;BME280;41907;47.848;9.000;2023-01-13T07:26:47;95578.50;;;6.83;100.00
56038;BME280;41907;47.848;9.000;2023-01-13T07:29:12;95574.50;;;6.85;100.00
56038;BME280;41907;47.848;9.000;2023-01-13T07:31:38;95575.72;;;6.93;100.00
56038;BME280;41907;47.848;9.000;2023-01-13T07:34:05;95564.31;;;6.92;100.00
56038;BME280;41907;47.848;9.000;2023-01-13T07:36:30;95582.59;;;6.94;100.00
56038;BME280;41907;47.848;9.000;2023-01-13T07:38:56;95584.97;;;6.95;100.00
56038;BME280;41907;47.848;9.000;2023-01-13T07:41:21;95578.00;;;6.99;100.00
56038;BME280;41907;47.848;9.000;2023-01-13T07:44:05;95587.03;;;6.98;100.00
56038;BME280;41907;47.848;9.000;2023-01-13T07:46:32;95583.44;;;7.08;100.00
56038;BME280;41907;47.848;9.000;2023-01-13T07:48:58;95578.44;;;7.06;100.00
56038;BME280;41907;47.848;9.000;2023-01-13T07:51:23;95587.59;;;7.14;100.00
56038;BME280;41907;47.848;9.000;2023-01-13T07:53:48;95578.06;;;7.13;100.00
56038;BME280;41907;47.848;9.000;2023-01-13T07:56:14;95583.09;;;7.15;100.00
56038;BME280;41907;47.848;9.000;2023-01-13T07:58:40;95591.84;;;7.15;100.00
56038;BME280;41907;47.848;9.000;2023-01-13T08:01:09;95579.94;;;7.13;100.00
56038;BME280;41907;47.848;9.000;2023-01-13T08:03:36;95585.31;;;7.07;100.00
56038;BME280;41907;47.848;9.000;2023-01-13T08:06:02;95597.69;;;7.12;100.00
56038;BME280;41907;47.848;9.000;2023-01-13T08:08:28;95587.09;;;7.12;100.00
56038;BME280;41907;47.848;9.000;2023-01-13T08:10:53;95583.88;;;7.15;100.00
56038;BME280;41907;47.848;9.000;2023-01-13T08:13:18;95596.19;;;7.25;100.00
56038;BME280;41907;47.848;9.000;2023-01-13T08:15:46;95595.13;;;7.26;100.00
56038;BME280;41907;47.848;9.000;2023-01-13T08:18:13;95582.94;;;7.25;100.00
56038;BME280;41907;47.848;9.000;2023-01-13T08:20:38;95609.16;;;7.26;100.00
56038;BME280;41907;47.848;9.000;2023-01-13T08:23:04;95599.31;;;7.27;100.00
56038;BME280;41907;47.848;9.000;2023-01-13T08:25:30;95587.34;;;7.29;100.00
56038;BME280;41907;47.848;9.000;2023-01-13T08:27:56;95586.50;;;7.34;100.00
56038;BME280;41907;47.848;9.000;2023-01-13T08:30:21;95586.34;;;7.44;100.00
56038;BME280;41907;47.848;9.000;2023-01-13T08:32:48;95577.56;;;7.90;100.00
56038;BME280;41907;47.848;9.000;2023-01-13T08:35:15;95590.25;;;8.61;100.00
56038;BME280;41907;47.848;9.000;2023-01-13T08:37:41;95593.16;;;9.67;98.89
56038;BME280;41907;47.848;9.000;2023-01-13T08:40:08;95586.31;;;10.46;92.30
56038;BME280;41907;47.848;9.000;2023-01-13T08:42:33;95578.50;;;11.78;85.19
56038;BME280;41907;47.848;9.000;2023-01-13T08:44:59;95579.38;;;12.00;81.55
56038;BME280;41907;47.848;9.000;2023-01-13T08:47:25;95586.63;;;12.37;80.35
56038;BME280;41907;47.848;9.000;2023-01-13T08:49:51;95578.06;;;11.59;82.82
56038;BME280;41907;47.848;9.000;2023-01-13T08:52:16;95582.41;;;11.72;82.16
56038;BME280;41907;47.848;9.000;2023-01-13T08:54:42;95596.88;;;11.88;81.60
56038;BME280;41907;47.848;9.000;2023-01-13T08:57:07;95594.56;;;11.09;84.48
56038;BME280;41907;47.848;9.000;2023-01-13T08:59:33;95589.28;;;10.44;87.86
56038;BME280;41907;47.848;9.000;2023-01-13T09:01:59;95600.91;;;10.17;90.77
56038;BME280;41907;47.848;9.000;2023-01-13T09:04:26;95606.25;;;9.86;92.85
56038;BME280;41907;47.848;9.000;2023-01-13T09:06:52;95612.25;;;9.25;96.58
56038;BME280;41907;47.848;9.000;2023-01-13T09:09:19;95600.19;;;8.83;99.93
56038;BME280;41907;47.848;9.000;2023-01-13T09:11:47;95607.50;;;8.77;100.00
56038;BME280;41907;47.848;9.000;2023-01-13T09:14:34;95614.31;;;8.56;100.00
56038;BME280;41907;47.848;9.000;2023-01-13T09:17:00;95618.75;;;8.47;100.00
56038;BME280;41907;47.848;9.000;2023-01-13T09:19:26;95627.47;;;8.20;100.00
56038;BME280;41907;47.848;9.000;2023-01-13T09:21:53;95620.66;;;8.00;100.00
56038;BME280;41907;47.848;9.000;2023-01-13T09:24:19;95620.44;;;7.97;100.00
56038;BME280;41907;47.848;9.000;2023-01-13T09:26:45;95624.00;;;7.92;100.00
56038;BME280;41907;47.848;9.000;2023-01-13T09:29:10;95617.78;;;7.97;100.00
56038;BME280;41907;47.848;9.000;2023-01-13T09:31:35;95621.41;;;7.87;100.00
56038;BME280;41907;47.848;9.000;2023-01-13T09:34:02;95608.44;;;7.85;100.00
56038;BME280;41907;47.848;9.000;2023-01-13T09:36:46;95627.00;;;7.85;100.00
56038;BME280;41907;47.848;9.000;2023-01-13T09:39:12;95622.00;;;7.84;100.00
56038;BME280;41907;47.848;9.000;2023-01-13T09:41:44;95622.25;;;8.01;100.00
56038;BME280;41907;47.848;9.000;2023-01-13T09:47:14;95626.38;;;10.80;95.50
56038;BME280;41907;47.848;9.000;2023-01-13T09:49:42;95631.34;;;10.47;97.04
56038;BME280;41907;47.848;9.000;2023-01-13T09:52:22;95642.69;;;9.55;99.22
56038;BME280;41907;47.848;9.000;2023-01-13T09:55:00;95638.50;;;9.18;100.00
56038;BME280;41907;47.848;9.000;2023-01-13T09:57:31;95647.63;;;9.03;100.00
56038;BME280;41907;47.848;9.000;2023-01-13T09:59:58;95649.44;;;8.67;100.00
56038;BME280;41907;47.848;9.000;2023-01-13T10:02:53;95656.34;;;8.54;100.00
56038;BME280;41907;47.848;9.000;2023-01-13T10:08:11;95648.47;;;8.35;100.00
56038;BME280;41907;47.848;9.000;2023-01-13T10:10:42;95648.06;;;8.42;100.00
56038;BME280;41907;47.848;9.000;2023-01-13T10:13:15;95648.34;;;8.40;100.00
56038;BME280;41907;47.848;9.000;2023-01-13T10:27:36;95656.09;;;7.77;100.00
56038;BME280;41907;47.848;9.000;2023-01-13T10:30:24;95646.09;;;7.88;100.00
56038;BME280;41907;47.848;9.000;2023-01-13T10:33:09;95646.94;;;8.02;100.00
56038;BME280;41907;47.848;9.000;2023-01-13T10:38:21;95638.47;;;8.00;100.00
56038;BME280;41907;47.848;9.000;2023-01-13T10:40:49;95627.75;;;8.05;100.00
56038;BME280;41907;47.848;9.000;2023-01-13T10:43:15;95628.63;;;8.00;100.00
56038;BME280;41907;47.848;9.000;2023-01-13T10:45:47;95632.69;;;8.25;100.00
56038;BME280;41907;47.848;9.000;2023-01-13T10:48:16;95624.25;;;8.37;100.00
56038;BME280;41907;47.848;9.000;2023-01-13T10:50:42;95631.69;;;8.21;100.00
56038;BME280;41907;47.848;9.000;2023-01-13T10:53:30;95624.50;;;8.08;100.00
56038;BME280;41907;47.848;9.000;2023-01-13T10:56:00;95629.41;;;8.01;100.00
56038;BME280;41907;47.848;9.000;2023-01-13T10:58:27;95626.94;;;7.91;100.00
56038;BME280;41907;47.848;9.000;2023-01-13T11:01:04;95627.81;;;7.86;100.00
56038;BME280;41907;47.848;9.000;2023-01-13T11:03:40;95622.66;;;7.76;100.00
56038;BME280;41907;47.848;9.000;2023-01-13T11:06:06;95633.00;;;7.77;100.00
56038;BME280;41907;47.848;9.000;2023-01-13T11:08:46;95635.44;;;7.74;100.00
56038;BME280;41907;47.848;9.000;2023-01-13T11:11:42;95631.53;;;7.71;100.00
56038;BME280;41907;47.848;9.000;2023-01-13T11:14:23;95647.34;;;7.76;100.00
56038;BME280;41907;47.848;9.000;2023-01-13T11:17:34;95635.25;;;7.70;100.00
56038;BME280;41907;47.848;9.000;2023-01-13T11:22:45;95634.38;;;7.75;100.00
56038;BME280;41907;47.848;9.000;2023-01-13T11:31:01;95634.97;;;8.32;100.00
56038;BME280;41907;47.848;9.000;2023-01-13T11:36:07;95637.81;;;8.76;100.00
56038;BME280;41907;47.848;9.000;2023-01-13T11:38:57;95649.25;;;8.49;100.00
56038;BME280;41907;47.848;9.000;2023-01-13T11:44:31;95652.00;;;8.44;100.00
56038;BME280;41907;47.848;9.000;2023-01-13T11:47:01;95649.06;;;8.46;100.00
56038;BME280;41907;47.848;9.000;2023-01-13T11:49:28;95657.41;;;8.80;100.00
56038;BME280;41907;47.848;9.000;2023-01-13T12:08:00;95625.22;;;14.23;72.61
56038;BME280;41907;47.848;9.000;2023-01-13T12:21:35;95623.59;;;12.73;72.14
56038;BME280;41907;47.848;9.000;2023-01-13T12:24:19;95617.00;;;11.34;79.71
56038;BME280;41907;47.848;9.000;2023-01-13T12:26:55;95626.94;;;10.51;85.23
56038;BME280;41907;47.848;9.000;2023-01-13T12:29:28;95631.28;;;10.07;90.42
56038;BME280;41907;47.848;9.000;2023-01-13T12:31:55;95630.00;;;10.27;89.78
56038;BME280;41907;47.848;9.000;2023-01-13T12:34:29;95624.50;;;10.24;90.02
56038;BME280;41907;47.848;9.000;2023-01-13T12:37:21;95623.22;;;10.69;88.54
56038;BME280;41907;47.848;9.000;2023-01-13T12:40:00;95634.00;;;12.28;78.40
56038;BME280;41907;47.848;9.000;2023-01-13T12:45:37;95643.34;;;10.84;82.89
56038;BME280;41907;47.848;9.000;2023-01-13T12:48:03;95646.50;;;10.38;85.61
56038;BME280;41907;47.848;9.000;2023-01-13T12:53:25;95645.59;;;9.89;89.34
56038;BME280;41907;47.848;9.000;2023-01-13T12:55:50;95640.69;;;9.83;89.37
56038;BME280;41907;47.848;9.000;2023-01-13T12:58:16;95642.41;;;9.79;89.26
56038;BME280;41907;47.848;9.000;2023-01-13T13:01:12;95652.81;;;9.66;89.16
56038;BME280;41907;47.848;9.000;2023-01-13T13:03:38;95656.22;;;9.58;90.67
56038;BME280;41907;47.848;9.000;2023-01-13T13:06:08;95656.75;;;9.47;90.74
56038;BME280;41907;47.848;9.000;2023-01-13T13:08:43;95653.53;;;9.36;91.75
56038;BME280;41907;47.848;9.000;2023-01-13T13:13:59;95644.16;;;9.39;90.90
56038;BME280;41907;47.848;9.000;2023-01-13T13:18:50;95648.41;;;9.40;92.34
56038;BME280;41907;47.848;9.000;2023-01-13T13:21:16;95644.22;;;9.47;91.12
56038;BME280;41907;47.848;9.000;2023-01-13T13:23:59;95645.53;;;9.36;91.27
56038;BME280;41907;47.848;9.000;2023-01-13T13:26:28;95637.06;;;9.12;91.01
56038;BME280;41907;47.848;9.000;2023-01-13T13:39:48;95637.75;;;9.62;84.44
56038;BME280;41907;47.848;9.000;2023-01-13T13:42:55;95634.41;;;9.79;82.75
56038;BME280;41907;47.848;9.000;2023-01-13T13:45:49;95638.22;;;9.86;80.72
56038;BME280;41907;47.848;9.000;2023-01-13T13:48:33;95639.19;;;9.90;79.58
56038;BME280;41907;47.848;9.000;2023-01-13T13:51:01;95652.06;;;9.97;77.85
56038;BME280;41907;47.848;9.000;2023-01-13T13:53:46;95653.81;;;10.01;77.95
56038;BME280;41907;47.848;9.000;2023-01-13T13:56:17;95661.91;;;9.88;78.21
56038;BME280;41907;47.848;9.000;2023-01-13T13:58:46;95668.84;;;9.75;78.25
56038;BME280;41907;47.848;9.000;2023-01-13T14:01:31;95660.97;;;9.92;78.61
56038;BME280;41907;47.848;9.000;2023-01-13T14:04:12;95676.34;;;9.95;78.30
56038;BME280;41907;47.848;9.000;2023-01-13T14:06:48;95667.31;;;10.05;78.38
56038;BME280;41907;47.848;9.000;2023-01-13T14:09:16;95671.31;;;9.94;77.93
56038;BME280;41907;47.848;9.000;2023-01-13T14:12:02;95673.88;;;9.77;79.09
56038;BME280;41907;47.848;9.000;2023-01-13T14:14:30;95683.72;;;9.54;79.14
56038;BME280;41907;47.848;9.000;2023-01-13T14:16:56;95689.53;;;9.33;81.37
56038;BME280;41907;47.848;9.000;2023-01-13T14:19:27;95699.19;;;9.29;82.42
56038;BME280;41907;47.848;9.000;2023-01-13T14:21:53;95709.50;;;9.45;83.06
56038;BME280;41907;47.848;9.000;2023-01-13T14:24:18;95706.59;;;9.55;82.70
56038;BME280;41907;47.848;9.000;2023-01-13T14:26:46;95723.38;;;9.55;83.63
56038;BME280;41907;47.848;9.000;2023-01-13T14:29:19;95726.88;;;9.28;82.40
56038;BME280;41907;47.848;9.000;2023-01-13T14:31:46;95727.47;;;9.25;84.11
56038;BME280;41907;47.848;9.000;2023-01-13T14:34:13;95743.75;;;9.24;85.10
56038;BME280;41907;47.848;9.000;2023-01-13T14:36:39;95744.44;;;9.16;85.89
56038;BME280;41907;47.848;9.000;2023-01-13T14:44:01;95761.41;;;8.79;87.45
56038;BME280;41907;47.848;9.000;2023-01-13T14:46:38;95764.84;;;8.66;87.23
56038;BME280;41907;47.848;9.000;2023-01-13T14:49:50;95767.88;;;8.59;88.59
56038;BME280;41907;47.848;9.000;2023-01-13T14:54:50;95782.75;;;8.46;87.14
56038;BME280;41907;47.848;9.000;2023-01-13T14:57:25;95784.50;;;8.37;86.70
56038;BME280;41907;47.848;9.000;2023-01-13T15:02:46;95801.59;;;7.94;93.86
56038;BME280;41907;47.848;9.000;2023-01-13T15:07:54;95826.78;;;7.59;99.04
56038;BME280;41907;47.848;9.000;2023-01-13T15:10:34;95825.00;;;7.35;99.87
56038;BME280;41907;47.848;9.000;2023-01-13T15:13:04;95834.94;;;7.25;100.00
56038;BME280;41907;47.848;9.000;2023-01-13T15:15:33;95833.97;;;7.16;100.00
56038;BME280;41907;47.848;9.000;2023-01-13T15:18:19;95830.03;;;7.13;100.00
56038;BME280;41907;47.848;9.000;2023-01-13T15:20:45;95835.59;;;7.12;100.00
56038;BME280;41907;47.848;9.000;2023-01-13T15:23:11;95851.72;;;6.91;100.00
56038;BME280;41907;47.848;9.000;2023-01-13T15:25:39;95823.88;;;6.94;100.00
56038;BME280;41907;47.848;9.000;2023-01-13T15:28:06;95818.63;;;6.89;100.00
56038;BME280;41907;47.848;9.000;2023-01-13T15:30:34;95849.81;;;6.97;100.00
56038;BME280;41907;47.848;9.000;2023-01-13T15:33:00;95852.16;;;6.98;100.00
56038;BME280;41907;47.848;9.000;2023-01-13T15:35:27;95865.94;;;7.00;100.00
56038;BME280;41907;47.848;9.000;2023-01-13T15:37:55;95870.25;;;6.96;100.00
56038;BME280;41907;47.848;9.000;2023-01-13T15:40:31;95871.97;;;6.82;100.00
56038;BME280;41907;47.848;9.000;2023-01-13T15:42:57;95872.31;;;6.76;100.00